createdAt,value
2022-10-22T00:01:04.759Z,7.65
2022-10-22T00:03:32.315Z,4.90
2022-10-22T00:06:00.428Z,4.93
2022-10-22T00:08:27.917Z,7.90
2022-10-22T00:10:55.549Z,9.68
2022-10-22T00:13:23.588Z,7.13
2022-10-22T00:15:50.716Z,8.45
2022-10-22T00:18:17.805Z,10.73
2022-10-22T00:20:44.893Z,7.97
2022-10-22T00:23:11.982Z,5.82
2022-10-22T00:25:39.395Z,5.82
2022-10-22T00:28:06.773Z,4.10
2022-10-22T00:30:33.891Z,4.68
2022-10-22T00:33:01.082Z,9.60
2022-10-22T00:35:28.225Z,6.25
2022-10-22T00:37:55.648Z,6.50
2022-10-22T00:40:23.331Z,7.93
2022-10-22T00:42:50.623Z,11.30
2022-10-22T00:45:24.104Z,18.92
2022-10-22T00:48:00.309Z,8.05
2022-10-22T00:50:34.334Z,9.85
2022-10-22T00:53:06.940Z,7.00
2022-10-22T00:55:34.816Z,7.93
2022-10-22T00:58:02.958Z,4.25
2022-10-22T01:00:31.165Z,8.80
2022-10-22T01:02:59.407Z,5.77
2022-10-22T01:05:43.624Z,3.33
2022-10-22T01:08:35.357Z,3.47
2022-10-22T01:11:42.761Z,4.85
2022-10-22T01:14:26.260Z,10.48
2022-10-22T01:17:08.273Z,10.77
2022-10-22T01:20:54.665Z,4.15
2022-10-22T01:24:03.584Z,5.97
2022-10-22T01:26:57.347Z,12.02
2022-10-22T01:30:02.802Z,7.47
2022-10-22T01:32:39.952Z,11.63
2022-10-22T01:35:13.142Z,4.28
2022-10-22T01:37:54.526Z,4.55
2022-10-22T01:40:23.933Z,6.28
2022-10-22T01:45:42.445Z,4.15
2022-10-22T01:48:30.810Z,3.78
2022-10-22T01:51:50.275Z,5.95
2022-10-22T01:55:01.659Z,4.95
2022-10-22T01:58:23.108Z,5.40
2022-10-22T02:01:46.397Z,3.80
2022-10-22T02:04:44.719Z,3.75
2022-10-22T02:07:17.589Z,6.13
2022-10-22T02:09:46.845Z,3.40
2022-10-22T02:12:16.434Z,6.30
2022-10-22T02:14:45.773Z,4.22
2022-10-22T02:20:01.858Z,8.93
2022-10-22T02:22:30.057Z,4.55
2022-10-22T02:24:57.445Z,5.70
2022-10-22T02:27:51.369Z,6.18
2022-10-22T02:30:22.403Z,6.25
2022-10-22T02:33:11.812Z,7.57
2022-10-22T02:35:42.333Z,2.28
2022-10-22T02:38:11.636Z,2.67
2022-10-22T02:40:39.495Z,6.28
2022-10-22T02:43:07.228Z,5.43
2022-10-22T02:45:35.017Z,6.80
2022-10-22T02:48:03.437Z,7.38
2022-10-22T02:50:30.680Z,4.28
2022-10-22T02:52:57.783Z,2.80
2022-10-22T02:55:25.383Z,1.73
2022-10-22T02:57:52.830Z,2.47
2022-10-22T03:00:20.398Z,6.60
2022-10-22T03:02:47.554Z,6.32
2022-10-22T03:05:14.639Z,3.38
2022-10-22T03:07:42.231Z,3.35
2022-10-22T03:10:09.951Z,2.72
2022-10-22T03:12:37.027Z,8.60
2022-10-22T03:15:05.108Z,4.95
2022-10-22T03:17:32.203Z,5.55
2022-10-22T03:19:59.273Z,3.75
2022-10-22T03:22:32.590Z,3.70
2022-10-22T03:25:07.941Z,1.63
2022-10-22T03:27:39.066Z,5.20
2022-10-22T03:30:08.669Z,2.47
2022-10-22T03:32:35.755Z,3.60
2022-10-22T03:35:06.154Z,3.63
2022-10-22T03:37:35.514Z,5.35
2022-10-22T03:40:06.408Z,2.42
2022-10-22T03:42:33.702Z,1.65
2022-10-22T03:45:00.834Z,4.45
2022-10-22T03:47:28.048Z,5.80
2022-10-22T03:49:55.143Z,3.53
2022-10-22T03:52:22.248Z,4.07
2022-10-22T03:54:49.378Z,4.65
2022-10-22T03:57:16.534Z,2.28
2022-10-22T03:59:46.762Z,7.13
2022-10-22T04:02:14.592Z,3.08
2022-10-22T04:04:41.822Z,4.38
2022-10-22T04:07:09.324Z,4.50
2022-10-22T04:09:39.194Z,5.43
2022-10-22T04:12:07.956Z,5.38
2022-10-22T04:14:35.172Z,4.28
2022-10-22T04:17:02.387Z,2.00
2022-10-22T04:19:29.679Z,2.45
2022-10-22T04:21:59.843Z,4.00
2022-10-22T04:24:27.335Z,2.28
2022-10-22T04:26:55.794Z,3.20
2022-10-22T04:29:23.845Z,5.75
2022-10-22T04:31:51.111Z,2.95
2022-10-22T04:34:18.269Z,2.75
2022-10-22T04:36:45.519Z,5.93
2022-10-22T04:39:37.576Z,9.15
2022-10-22T04:42:05.868Z,4.40
2022-10-22T04:44:33.374Z,3.35
2022-10-22T04:47:00.526Z,2.55
2022-10-22T04:49:33.870Z,6.97
2022-10-22T04:52:03.435Z,3.47
2022-10-22T04:54:33.096Z,5.75
2022-10-22T04:57:00.524Z,5.72
2022-10-22T04:59:27.822Z,6.07
2022-10-22T05:01:55.443Z,9.30
2022-10-22T05:04:22.566Z,5.32
2022-10-22T05:06:49.810Z,7.80
2022-10-22T05:09:21.121Z,6.25
2022-10-22T05:11:52.360Z,3.58
2022-10-22T05:14:25.269Z,4.45
2022-10-22T05:16:53.504Z,10.75
2022-10-22T05:19:30.991Z,9.87
2022-10-22T05:22:02.784Z,8.10
2022-10-22T05:24:33.477Z,7.35
2022-10-22T05:27:01.189Z,4.03
2022-10-22T05:29:28.548Z,9.32
2022-10-22T05:31:56.121Z,7.65
2022-10-22T05:34:23.319Z,4.95
2022-10-22T05:36:54.437Z,5.45
2022-10-22T05:39:22.082Z,4.15
2022-10-22T05:41:49.363Z,8.68
2022-10-22T05:44:16.528Z,5.70
2022-10-22T05:47:32.020Z,8.85
2022-10-22T05:52:00.438Z,4.55
2022-10-22T05:56:28.013Z,6.82
2022-10-22T05:58:57.255Z,4.28
2022-10-22T06:01:30.318Z,5.77
2022-10-22T06:04:03.067Z,8.57
2022-10-22T06:06:49.381Z,8.13
2022-10-22T06:09:31.339Z,6.95
2022-10-22T06:11:59.356Z,4.05
2022-10-22T06:14:28.702Z,9.90
2022-10-22T06:16:55.966Z,5.30
2022-10-22T06:19:26.733Z,9.07
2022-10-22T06:21:54.455Z,14.48
2022-10-22T06:24:21.780Z,6.75
2022-10-22T06:26:53.326Z,11.93
2022-10-22T06:29:21.084Z,11.88
2022-10-22T06:31:48.995Z,9.20
2022-10-22T06:34:18.815Z,11.95
2022-10-22T06:37:12.101Z,9.00
2022-10-22T06:39:39.230Z,13.52
2022-10-22T06:42:06.407Z,10.85
2022-10-22T06:44:35.232Z,7.65
2022-10-22T06:47:02.431Z,11.18
2022-10-22T06:49:29.530Z,8.82
2022-10-22T06:52:21.702Z,11.77
2022-10-22T06:54:48.797Z,14.07
2022-10-22T06:57:15.913Z,8.23
2022-10-22T06:59:42.977Z,10.43
2022-10-22T07:02:10.806Z,9.23
2022-10-22T07:04:38.044Z,13.93
2022-10-22T07:07:05.140Z,10.98
2022-10-22T07:09:32.228Z,10.40
2022-10-22T07:11:59.297Z,12.70
2022-10-22T07:14:26.430Z,6.00
2022-10-22T07:16:53.562Z,6.13
2022-10-22T07:19:20.662Z,11.10
2022-10-22T07:21:47.823Z,6.43
2022-10-22T07:24:14.926Z,11.65
2022-10-22T07:26:42.498Z,6.35
2022-10-22T07:29:10.091Z,12.38
2022-10-22T07:31:37.225Z,9.63
2022-10-22T07:34:04.430Z,8.05
2022-10-22T07:36:31.573Z,9.85
2022-10-22T07:39:00.731Z,8.48
2022-10-22T07:41:30.562Z,14.88
2022-10-22T07:43:59.037Z,11.25
2022-10-22T07:46:26.957Z,12.73
2022-10-22T07:48:54.547Z,5.32
2022-10-22T07:51:21.994Z,6.28
2022-10-22T07:53:49.334Z,6.22
2022-10-22T07:56:17.734Z,6.07
2022-10-22T07:58:45.020Z,4.83
2022-10-22T08:01:12.341Z,6.30
2022-10-22T08:03:39.772Z,9.00
2022-10-22T08:06:07.959Z,7.15
2022-10-22T08:08:35.314Z,5.80
2022-10-22T08:11:02.855Z,8.48
2022-10-22T08:13:30.878Z,7.82
2022-10-22T08:16:00.852Z,5.57
2022-10-22T08:18:28.235Z,16.10
2022-10-22T08:20:55.551Z,10.55
2022-10-22T08:23:26.013Z,7.80
2022-10-22T08:25:55.388Z,7.75
2022-10-22T08:28:22.834Z,6.18
2022-10-22T08:30:50.770Z,5.53
2022-10-22T08:33:18.451Z,5.55
2022-10-22T08:35:53.067Z,4.18
2022-10-22T08:38:27.429Z,3.58
2022-10-22T08:41:15.225Z,4.88
2022-10-22T08:44:07.131Z,4.18
2022-10-22T08:47:13.122Z,3.15
2022-10-22T08:49:43.345Z,2.08
2022-10-22T08:52:19.015Z,2.72
2022-10-22T08:54:54.366Z,6.07
2022-10-22T08:57:54.066Z,2.10
2022-10-22T09:00:25.354Z,6.80
2022-10-22T09:03:36.575Z,3.35
2022-10-22T09:06:14.361Z,7.45
2022-10-22T09:08:45.844Z,4.60
2022-10-22T09:11:12.942Z,4.72
2022-10-22T09:13:46.333Z,3.72
2022-10-22T09:16:42.883Z,6.50
2022-10-22T09:19:51.397Z,6.43
2022-10-22T09:25:27.450Z,4.18
2022-10-22T09:27:58.253Z,2.15
2022-10-22T09:30:31.852Z,4.03
2022-10-22T09:33:26.008Z,6.10
2022-10-22T09:36:03.630Z,1.20
2022-10-22T09:38:41.815Z,9.00
2022-10-22T09:41:09.723Z,3.60
2022-10-22T09:43:37.119Z,2.75
2022-10-22T09:46:17.151Z,3.22
2022-10-22T09:48:51.869Z,6.07
2022-10-22T09:51:36.501Z,3.60
2022-10-22T09:54:32.071Z,7.82
2022-10-22T09:57:18.026Z,1.10
2022-10-22T09:59:50.195Z,4.63
2022-10-22T10:02:37.505Z,1.67
2022-10-22T10:05:08.554Z,6.78
2022-10-22T10:07:36.987Z,4.95
2022-10-22T10:10:40.046Z,2.17
2022-10-22T10:13:30.166Z,9.77
2022-10-22T10:16:16.080Z,3.00
2022-10-22T10:19:45.378Z,1.83
2022-10-22T10:22:58.617Z,2.40
2022-10-22T10:25:55.844Z,2.67
2022-10-22T10:28:56.881Z,4.55
2022-10-22T10:32:03.139Z,3.30
2022-10-22T10:35:12.865Z,5.00
2022-10-22T10:38:19.468Z,3.05
2022-10-22T10:41:43.545Z,9.27
2022-10-22T10:44:47.412Z,1.45
2022-10-22T10:48:06.902Z,5.03
2022-10-22T10:51:51.587Z,4.38
2022-10-22T10:54:45.179Z,5.18
2022-10-22T10:57:29.343Z,1.77
2022-10-22T11:00:21.110Z,2.17
2022-10-22T11:03:39.805Z,1.75
2022-10-22T11:08:49.920Z,4.47
2022-10-22T11:11:55.948Z,5.13
2022-10-22T11:14:38.032Z,2.67
2022-10-22T11:17:23.061Z,2.97
2022-10-22T11:20:24.185Z,4.15
2022-10-22T11:23:23.049Z,4.45
2022-10-22T11:25:50.963Z,5.57
2022-10-22T11:28:39.482Z,3.38
2022-10-22T11:31:16.058Z,6.55
2022-10-22T11:34:32.693Z,6.07
2022-10-22T11:37:05.068Z,3.63
2022-10-22T11:39:50.967Z,4.57
2022-10-22T11:42:23.728Z,2.53
2022-10-22T11:45:14.210Z,4.18
2022-10-22T11:48:10.469Z,8.38
2022-10-22T11:50:57.460Z,2.13
2022-10-22T11:53:37.536Z,4.05
2022-10-22T11:56:07.776Z,5.45
2022-10-22T11:58:39.256Z,4.53
2022-10-22T12:01:09.473Z,8.43
2022-10-22T12:03:59.070Z,1.75
2022-10-22T12:06:28.901Z,2.75
2022-10-22T12:09:04.904Z,3.75
2022-10-22T12:11:50.582Z,1.40
2022-10-22T12:14:27.938Z,4.28
2022-10-22T12:17:05.204Z,12.70
2022-10-22T12:19:46.670Z,1.60
2022-10-22T12:22:23.358Z,2.75
2022-10-22T12:24:54.605Z,3.20
2022-10-22T12:27:34.656Z,3.45
2022-10-22T12:30:18.096Z,7.22
2022-10-22T12:32:46.240Z,3.75
2022-10-22T12:35:24.137Z,6.40
2022-10-22T12:38:02.668Z,6.60
2022-10-22T12:43:19.453Z,5.00
2022-10-22T12:45:50.267Z,2.38
2022-10-22T12:48:28.766Z,3.45
2022-10-22T12:51:03.849Z,2.22
2022-10-22T12:53:35.339Z,4.78
2022-10-22T12:56:21.395Z,4.25
2022-10-22T12:59:20.878Z,3.22
2022-10-22T13:01:51.474Z,6.20
2022-10-22T13:04:38.201Z,9.55
2022-10-22T13:07:18.337Z,2.67
2022-10-22T13:10:00.204Z,7.10
2022-10-22T13:15:35.198Z,6.13
2022-10-22T13:20:37.271Z,4.45
2022-10-22T13:23:06.361Z,3.75
2022-10-22T13:25:39.655Z,4.60
2022-10-22T13:28:06.866Z,2.95
2022-10-22T13:30:38.492Z,4.32
2022-10-22T13:33:26.326Z,4.25
2022-10-22T13:35:56.509Z,5.25
2022-10-22T13:38:29.223Z,3.10
2022-10-22T13:40:57.446Z,4.65
2022-10-22T13:43:25.645Z,2.85
2022-10-22T13:45:59.154Z,4.90
2022-10-22T13:48:29.263Z,3.78
2022-10-22T13:50:56.589Z,5.20
2022-10-22T13:53:51.681Z,2.55
2022-10-22T13:56:21.942Z,11.38
2022-10-22T13:58:50.476Z,3.70
2022-10-22T14:01:26.508Z,5.82
2022-10-22T14:03:58.376Z,3.42
2022-10-22T14:06:29.862Z,2.22
2022-10-22T14:09:03.624Z,3.70
2022-10-22T14:11:32.520Z,6.78
2022-10-22T14:13:59.760Z,4.38
2022-10-22T14:16:31.172Z,5.28
2022-10-22T14:18:59.577Z,3.60
2022-10-22T14:21:30.507Z,4.78
2022-10-22T14:23:57.653Z,5.70
2022-10-22T14:26:32.810Z,3.67
2022-10-22T14:29:09.481Z,3.65
2022-10-22T14:31:44.034Z,3.53
2022-10-22T14:34:15.851Z,2.95
2022-10-22T14:36:43.817Z,4.70
2022-10-22T14:39:13.099Z,3.25
2022-10-22T14:41:42.445Z,4.95
2022-10-22T14:44:14.240Z,4.95
2022-10-22T14:46:43.876Z,4.00
2022-10-22T14:49:11.075Z,9.85
2022-10-22T14:51:38.481Z,4.03
2022-10-22T14:54:05.852Z,3.20
2022-10-22T14:56:33.754Z,6.50
2022-10-22T14:59:01.046Z,2.27
2022-10-22T15:01:28.224Z,1.88
2022-10-22T15:03:55.357Z,2.58
2022-10-22T15:06:22.865Z,5.43
2022-10-22T15:08:50.797Z,9.13
2022-10-22T15:11:18.089Z,8.63
2022-10-22T15:13:45.306Z,4.65
2022-10-22T15:16:16.495Z,13.40
2022-10-22T15:18:43.685Z,5.15
2022-10-22T15:21:19.416Z,6.68
2022-10-22T15:23:48.360Z,6.88
2022-10-22T15:26:16.255Z,8.10
2022-10-22T15:28:44.297Z,15.67
2022-10-22T15:31:15.164Z,8.75
2022-10-22T15:33:43.826Z,16.70
2022-10-22T15:36:17.013Z,12.55
2022-10-22T15:38:44.101Z,16.45
2022-10-22T15:41:13.449Z,13.35
2022-10-22T15:43:40.727Z,13.52
2022-10-22T15:46:19.791Z,10.48
2022-10-22T15:48:46.971Z,8.25
2022-10-22T15:51:18.746Z,8.43
2022-10-22T15:53:56.929Z,9.30
2022-10-22T15:56:27.813Z,11.30
2022-10-22T15:59:00.926Z,11.07
2022-10-22T16:01:28.650Z,13.02
2022-10-22T16:04:02.833Z,10.25
2022-10-22T16:06:48.585Z,10.45
2022-10-22T16:09:20.780Z,12.95
2022-10-22T16:11:49.214Z,10.68
2022-10-22T16:14:20.209Z,8.85
2022-10-22T16:16:53.069Z,16.75
2022-10-22T16:19:25.431Z,15.30
2022-10-22T16:21:55.796Z,11.63
2022-10-22T16:24:23.506Z,15.55
2022-10-22T16:26:52.627Z,17.70
2022-10-22T16:29:20.299Z,16.67
2022-10-22T16:31:47.635Z,16.45
2022-10-22T16:34:14.853Z,16.23
2022-10-22T16:36:42.231Z,16.83
2022-10-22T16:39:10.041Z,14.02
2022-10-22T16:41:37.358Z,15.57
2022-10-22T16:44:08.682Z,16.35
2022-10-22T16:46:39.857Z,15.60
2022-10-22T16:49:07.938Z,20.45
2022-10-22T16:51:35.855Z,26.13
2022-10-22T16:54:05.552Z,26.02
2022-10-22T16:56:36.567Z,16.23
2022-10-22T16:59:04.716Z,18.88
2022-10-22T17:01:34.002Z,9.50
2022-10-22T17:04:03.994Z,21.90
2022-10-22T17:06:31.413Z,19.08
2022-10-22T17:08:59.100Z,16.83
2022-10-22T17:11:26.441Z,12.55
2022-10-22T17:13:54.714Z,11.63
2022-10-22T17:16:24.989Z,16.50
2022-10-22T17:18:55.022Z,13.43
2022-10-22T17:21:23.787Z,16.48
2022-10-22T17:23:58.380Z,15.07
2022-10-22T17:26:29.074Z,16.67
2022-10-22T17:28:56.639Z,17.00
2022-10-22T17:31:34.210Z,12.55
2022-10-22T17:34:01.826Z,17.88
2022-10-22T17:36:34.866Z,20.20
2022-10-22T17:39:07.619Z,16.15
2022-10-22T17:41:37.814Z,11.32
2022-10-22T17:44:12.143Z,16.58
2022-10-22T17:46:39.702Z,30.77
2022-10-22T17:49:18.053Z,16.60
2022-10-22T17:51:46.202Z,21.17
2022-10-22T17:54:14.609Z,16.85
2022-10-22T17:56:42.047Z,11.32
2022-10-22T17:59:15.830Z,15.63
2022-10-22T18:01:45.801Z,14.73
2022-10-22T18:04:20.086Z,15.25
2022-10-22T18:06:50.053Z,17.05
2022-10-22T18:09:19.391Z,14.75
2022-10-22T18:11:49.767Z,14.32
2022-10-22T18:14:20.889Z,14.23
2022-10-22T18:16:48.899Z,17.15
2022-10-22T18:19:22.513Z,19.38
2022-10-22T18:21:50.517Z,13.82
2022-10-22T18:24:18.480Z,12.95
2022-10-22T18:26:46.237Z,14.87
2022-10-22T18:29:18.422Z,13.25
2022-10-22T18:31:47.299Z,20.38
2022-10-22T18:34:16.551Z,25.35
2022-10-22T18:36:46.200Z,30.00
2022-10-22T18:39:38.504Z,29.48
2022-10-22T18:42:07.144Z,24.42
2022-10-22T18:44:35.800Z,31.85
2022-10-22T18:49:54.811Z,22.80
2022-10-22T18:52:25.031Z,29.40
2022-10-22T18:54:52.173Z,23.85
2022-10-22T18:57:19.354Z,27.05
2022-10-22T18:59:46.574Z,42.83
2022-10-22T19:02:17.061Z,26.73
2022-10-22T19:04:45.371Z,22.02
2022-10-22T19:07:12.717Z,15.13
2022-10-22T19:09:42.448Z,14.70
2022-10-22T19:12:10.290Z,14.93
2022-10-22T19:14:39.810Z,18.15
2022-10-22T19:17:07.158Z,11.68
2022-10-22T19:19:34.991Z,18.73
2022-10-22T19:22:02.155Z,18.55
2022-10-22T19:24:29.700Z,18.55
2022-10-22T19:26:57.011Z,29.40
2022-10-22T19:29:24.201Z,13.65
2022-10-22T19:31:51.487Z,16.02
2022-10-22T19:34:20.155Z,17.10
2022-10-22T19:37:13.320Z,23.00
2022-10-22T19:39:40.705Z,13.38
2022-10-22T19:42:07.927Z,13.35
2022-10-22T19:44:35.015Z,22.20
2022-10-22T19:47:02.129Z,16.02
2022-10-22T19:49:35.168Z,13.63
2022-10-22T19:52:02.679Z,13.52
2022-10-22T19:54:30.150Z,18.35
2022-10-22T19:56:57.347Z,10.45
2022-10-22T19:59:28.666Z,12.55
2022-10-22T20:01:58.443Z,17.13
2022-10-22T20:04:27.962Z,20.42
2022-10-22T20:06:55.532Z,19.20
2022-10-22T20:09:22.706Z,27.15
2022-10-22T20:11:50.136Z,16.98
2022-10-22T20:14:17.305Z,11.43
2022-10-22T20:16:44.615Z,16.85
2022-10-22T20:19:19.009Z,11.52
2022-10-22T20:26:31.282Z,11.68
2022-10-22T20:29:18.587Z,15.27
2022-10-22T20:31:59.708Z,10.93
2022-10-22T20:34:29.793Z,10.00
2022-10-22T20:36:59.273Z,11.82
2022-10-22T20:39:40.151Z,15.90
2022-10-22T20:42:07.389Z,14.93
2022-10-22T20:44:34.683Z,12.48
2022-10-22T20:47:01.860Z,16.45
2022-10-22T20:49:36.399Z,14.30
2022-10-22T20:52:03.629Z,10.88
2022-10-22T20:54:30.727Z,16.88
2022-10-22T20:56:58.339Z,13.50
2022-10-22T20:59:32.505Z,17.20
2022-10-22T21:02:03.323Z,17.58
2022-10-22T21:04:31.385Z,11.75
2022-10-22T21:06:58.574Z,12.10
2022-10-22T21:09:25.778Z,12.45
2022-10-22T21:14:26.227Z,10.07
2022-10-22T21:16:53.474Z,8.65
2022-10-22T21:19:22.565Z,14.95
2022-10-22T21:21:50.033Z,11.43
2022-10-22T21:24:17.892Z,11.43
2022-10-22T21:26:45.582Z,25.70
2022-10-22T21:29:13.531Z,14.05
2022-10-22T21:31:40.912Z,17.52
2022-10-22T21:34:08.325Z,9.35
2022-10-22T21:36:35.582Z,11.45
2022-10-22T21:39:03.257Z,11.68
2022-10-22T21:41:30.507Z,14.23
2022-10-22T21:43:58.173Z,12.90
2022-10-22T21:46:28.415Z,10.63
2022-10-22T21:49:01.952Z,13.20
2022-10-22T21:51:33.584Z,15.65
2022-10-22T21:54:01.019Z,11.20
2022-10-22T21:56:33.828Z,14.10
2022-10-22T21:59:04.729Z,11.57
2022-10-22T22:01:33.114Z,11.27
2022-10-22T22:04:00.918Z,14.18
2022-10-22T22:06:33.433Z,16.40
2022-10-22T22:09:03.983Z,12.27
2022-10-22T22:11:31.996Z,15.50
2022-10-22T22:14:00.331Z,21.55
2022-10-22T22:16:32.739Z,11.43
2022-10-22T22:19:06.693Z,19.70
2022-10-22T22:21:36.410Z,10.85
2022-10-22T22:24:04.357Z,9.93
2022-10-22T22:26:32.569Z,8.95
2022-10-22T22:29:01.181Z,10.88
2022-10-22T22:31:33.408Z,16.08
2022-10-22T22:34:12.662Z,15.32
2022-10-22T22:39:23.543Z,16.60
2022-10-22T22:41:51.534Z,9.68
2022-10-22T22:44:18.859Z,18.80
2022-10-22T22:46:46.190Z,17.52
2022-10-22T22:49:14.492Z,9.68
2022-10-22T22:51:43.391Z,15.70
2022-10-22T22:54:11.307Z,23.58
2022-10-22T22:56:39.158Z,14.95
2022-10-22T22:59:06.908Z,12.53
2022-10-22T23:01:38.269Z,13.68
2022-10-22T23:04:13.030Z,10.98
2022-10-22T23:06:40.701Z,15.05
2022-10-22T23:09:12.350Z,11.98
2022-10-22T23:11:42.502Z,16.48
2022-10-22T23:14:14.707Z,17.55
2022-10-22T23:16:50.068Z,13.77
2022-10-22T23:19:22.171Z,9.32
2022-10-22T23:21:56.527Z,17.90
2022-10-22T23:24:28.964Z,18.98
2022-10-22T23:27:02.388Z,13.18
2022-10-22T23:29:34.279Z,12.05
2022-10-22T23:32:05.186Z,12.32
2022-10-22T23:34:33.011Z,7.85
2022-10-22T23:37:00.695Z,11.80
2022-10-22T23:39:29.633Z,16.15
2022-10-22T23:41:58.145Z,9.07
2022-10-22T23:44:25.935Z,7.50
2022-10-22T23:46:53.285Z,7.47
2022-10-22T23:49:20.789Z,11.80
2022-10-22T23:51:47.929Z,10.55
2022-10-22T23:54:18.554Z,8.20
2022-10-22T23:56:46.843Z,8.82
